Shepherd, Texas
Current Conditions -  °F | °C
As of 4:50 PM on Thursday 23 Oct 2014 (Local Time) from K6R3 Reporting Station
Clear Clear  
Wind Chill: 76°   Ceiling: Unl
Heat Index: 78°   Visibility: 10mi
Dew Point: 59°   Wind: 3mph
Humidity: 56%   Direction: 20°NNE
Pressure: 30.07"   Gusts: NA
Location:  30.5°N, 95°W
Report Text: K6R3 232150Z AUTO 02003KT 10SM CLR 25/15 A3007 RMK AO2 T02450152
Loading
Personal Weather Stations






























Interactive Weather Map
Tropical Storm Tracking
New forecast layout! Learn more

10-Day Weather Forecast

Advertisements
Track Severe Weather on mobile